Stambaugh, Michigan
Current Conditions -  °F | °C
As of 1:55 PM on Friday 24 Oct 2014 (Local Time) from KLNL Reporting Station
Clear Clear  
Wind Chill: 61°   Ceiling: Unl
Heat Index: 61°   Visibility: 10mi
Dew Point: 45°   Wind: 8mph
Humidity: 54%   Direction: 210°SSW
Pressure: 29.88"   Gusts: NA
Location:  46.08°N, 88.63°W
Report Text: KLNL 241855Z AUTO 21007KT 170V240 10SM CLR 16/07 A2988 RMK AO2 T01620070
Loading
Personal Weather Stations






























Interactive Weather Map
Tropical Storm Tracking
New forecast layout! Learn more

10-Day Weather Forecast

Advertisements
Track Severe Weather on mobile